Latest Weather Observations for Learmonth

IDW60801

Issued at 2:35 pm WST Wednesday 30 July 2014 (issued every 30 minutes, with the page automatically refreshed every 10 minutes)

About weather observations | Map of weather stations | Latest weather observations for WA | Other Formats
Station Details ID: 005007 Name: LEARMONTH AIRPORT Lat: -22.24 Lon: 114.10 Height: 5.0 m
Data from the previous 72 hours. | See also: Recent months at Learmonth
Date/Time
WST
Temp
°C
App
Temp
°C
Dew
Point
Rel
Hum
%
Delta-T
°C
Wind Press
QNH
hPa
Press
MSL
hPa
Rain
since 9 am
mm
Dir
 
Spd
km/h
Gust
km/h
Spd
kts
Gust
kts
30/02:30pm 28.3 25.1 2.9 19 12.6 NE 9 15 5 8 1017.2 - 0.0
30/02:00pm 28.1 24.4 2.4 19 12.6 ENE 11 13 6 7 1017.4 - 0.0
30/01:30pm 28.3 24.4 3.2 20 12.5 ESE 13 19 7 10 1017.5 - 0.0
30/01:00pm 27.4 23.3 2.0 19 12.3 SE 13 19 7 10 1018.0 - 0.0
30/12:30pm 26.9 23.3 2.8 21 11.8 SE 11 15 6 8 1018.6 - 0.0
30/12:00pm 25.3 22.0 2.4 22 11.0 SE 9 13 5 7 1019.1 1019.0 0.0
30/11:30am 24.8 21.0 1.8 22 10.9 SE 11 15 6 8 1019.4 - 0.0
30/11:00am 24.4 21.5 1.7 22 10.7 SE 6 15 3 8 1019.9 - 0.0
30/10:30am 23.5 20.0 1.0 22 10.4 SE 9 15 5 8 1020.3 - 0.0
30/10:00am 23.3 19.9 2.0 24 10.0 SE 9 19 5 10 1020.4 - 0.0
30/09:30am 22.3 18.6 2.2 26 9.4 SSE 11 17 6 9 1020.4 - 0.0
30/09:00am 21.9 18.7 3.2 29 8.9 S 9 15 5 8 1020.1 1020.0 0.0
30/08:30am 19.9 17.0 4.5 36 7.4 SW 9 11 5 6 1020.1 - 0.0
30/08:00am 17.5 14.9 6.3 47 5.5 WSW 9 11 5 6 1020.0 - 0.0
30/07:30am 15.0 11.6 5.8 54 4.4 WSW 13 15 7 8 1019.8 - 0.0
30/07:00am 16.1 13.4 3.7 43 5.7 W 7 9 4 5 1019.7 - 0.0
30/06:30am 16.6 14.4 3.6 42 6.0 W 4 9 2 5 1019.5 - 0.0
30/06:00am 16.4 13.4 3.9 43 5.8 WSW 9 13 5 7 1019.4 1019.3 0.0
30/05:30am 16.4 13.0 3.9 43 5.8 SSW 11 13 6 7 1019.2 - 0.0
30/05:00am 15.9 12.9 4.3 46 5.4 SW 9 11 5 6 1019.0 - 0.0
30/04:30am 17.3 14.5 3.4 39 6.4 SSW 7 13 4 7 1018.9 - 0.0
30/04:00am 17.3 14.4 2.8 38 6.6 SSW 7 13 4 7 1018.9 - 0.0
30/03:30am 15.3 12.6 3.7 46 5.3 WSW 7 9 4 5 1019.0 - 0.0
30/03:00am 16.5 13.4 3.4 41 6.0 SW 9 13 5 7 1018.8 1018.7 0.0
30/02:30am 16.2 12.5 4.2 45 5.6 SW 13 15 7 8 1018.7 - 0.0
30/02:00am 16.5 12.8 4.3 44 5.7 SW 13 17 7 9 1018.9 - 0.0
30/01:30am 16.6 12.6 5.0 46 5.5 SSW 15 17 8 9 1019.1 - 0.0
30/01:00am 17.8 13.9 5.4 44 6.0 SW 15 19 8 10 1019.1 - 0.0
30/12:30am 17.7 14.4 6.3 47 5.6 SSW 13 15 7 8 1019.0 - 0.0
30/12:00am 18.9 15.3 6.7 45 6.1 SSW 15 17 8 9 1019.0 1018.9 0.0
 
Date/Time
WST
Temp
°C
App
Temp
°C
Dew
Point
Rel
Hum
%
Delta-T
°C
Wind Press
QNH
hPa
Press
MSL
hPa
Rain
since 9 am
mm
Dir
 
Spd
km/h
Gust
km/h
Spd
kts
Gust
kts
29/11:30pm 18.6 15.2 7.5 48 5.6 SSW 15 17 8 9 1019.1 - 0.0
29/11:00pm 18.3 14.6 8.1 51 5.2 SSW 17 19 9 10 1019.3 - 0.0
29/10:30pm 17.1 15.1 8.7 57 4.3 SW 9 11 5 6 1019.3 - 0.0
29/10:00pm 17.5 14.5 9.2 58 4.3 SW 15 17 8 9 1019.4 - 0.0
29/09:30pm 17.3 14.5 9.9 62 3.9 SW 15 17 8 9 1019.3 - 0.0
29/09:00pm 17.6 15.0 10.7 64 3.7 SW 15 17 8 9 1019.2 1019.1 0.0
29/08:30pm 17.9 15.4 11.0 64 3.7 SW 15 17 8 9 1019.1 - 0.0
29/08:00pm 18.7 16.1 10.7 59 4.3 SW 15 17 8 9 1019.0 - 0.0
29/07:30pm 19.3 16.7 9.4 52 5.2 SW 13 15 7 8 1018.9 - 0.0
29/07:00pm 19.2 15.4 7.6 47 5.9 SW 17 19 9 10 1018.6 - 0.0
29/06:30pm 23.2 20.5 5.8 32 8.8 SW 9 11 5 6 1018.3 - 0.0
29/06:00pm 25.6 23.2 5.3 27 10.3 S 7 7 4 4 1018.1 1018.0 0.0
29/05:30pm 26.8 24.5 5.6 25 10.9 SSE 7 7 4 4 1017.9 - 0.0
29/05:00pm 27.8 24.4 2.1 19 12.5 ESE 9 13 5 7 1017.9 - 0.0
29/04:30pm 28.3 24.5 1.7 18 12.9 SE 11 15 6 8 1017.8 - 0.0
29/04:00pm 28.4 24.1 0.8 16 13.2 E 13 15 7 8 1017.7 - 0.0
29/03:30pm 28.3 24.2 0.1 16 13.3 E 11 13 6 7 1017.9 - 0.0
29/03:00pm 28.5 24.2 1.0 17 13.2 E 13 15 7 8 1018.1 1018.0 0.0
29/02:30pm 28.4 24.2 1.9 18 12.9 E 13 19 7 10 1018.3 - 0.0
29/02:00pm 27.6 23.9 2.5 20 12.3 ESE 11 17 6 9 1018.4 - 0.0
29/01:30pm 27.4 23.8 2.8 20 12.1 ESE 11 15 6 8 1018.7 - 0.0
29/01:00pm 26.3 22.3 2.7 21 11.5 SE 13 17 7 9 1019.2 - 0.0
29/12:30pm 26.0 22.6 4.1 24 10.9 SE 11 17 6 9 1019.7 - 0.0
29/12:00pm 25.0 20.7 3.2 24 10.6 SE 15 19 8 10 1020.0 1019.9 0.0
29/11:30am 23.6 19.9 4.3 28 9.5 SSE 13 17 7 9 1020.4 - 0.0
29/11:00am 22.4 19.6 5.0 32 8.6 S 9 15 5 8 1020.8 - 0.0
29/10:30am 22.3 19.4 4.8 32 8.6 E 9 13 5 7 1021.0 - 0.0
29/10:00am 21.4 18.5 4.8 33 8.1 ESE 9 13 5 7 1021.1 - 0.0
29/09:30am 20.8 17.7 5.4 36 7.6 SSE 11 22 6 12 1021.1 - 0.0
29/09:00am 19.2 15.7 5.5 40 6.7 S 13 17 7 9 1020.9 1020.8 0.0
29/08:30am 17.5 14.1 5.7 46 5.7 SW 13 15 7 8 1020.8 - 0.0
29/08:00am 15.3 11.9 5.9 53 4.5 SW 13 15 7 8 1020.6 - 0.0
29/07:30am 12.0 8.7 6.3 68 2.7 WSW 13 15 7 8 1020.3 - 0.0
29/07:00am 11.3 7.9 5.9 69 2.5 SW 13 17 7 9 1019.8 - 0.0
29/06:30am 11.4 7.3 6.0 69 2.5 WSW 17 17 9 9 1019.6 - 0.0
29/06:00am 12.1 8.7 5.9 66 2.9 WSW 13 13 7 7 1019.4 1019.3 0.0
29/05:30am 12.3 8.5 5.9 65 3.0 WSW 15 15 8 8 1019.2 - 0.0
29/05:00am 12.4 8.6 6.0 65 3.0 WSW 15 17 8 9 1019.0 - 0.0
29/04:30am 12.4 8.6 6.0 65 3.0 WSW 15 17 8 9 1019.1 - 0.0
29/04:00am 12.6 9.6 5.8 63 3.2 SW 11 13 6 7 1019.0 - 0.0
29/03:30am 12.8 9.4 6.0 63 3.2 SW 13 15 7 8 1019.2 - 0.0
29/03:00am 13.5 10.1 5.9 60 3.6 SW 13 15 7 8 1019.3 1019.2 0.0
29/02:30am 13.7 10.4 6.4 61 3.5 WSW 13 17 7 9 1019.4 - 0.0
29/02:00am 12.9 9.3 6.9 67 2.9 SW 15 17 8 9 1019.7 - 0.0
29/01:30am 13.3 10.2 7.3 67 2.9 SSW 13 17 7 9 1019.8 - 0.0
29/01:00am 14.2 10.7 7.2 63 3.4 SSW 15 17 8 9 1019.8 - 0.0
29/12:30am 14.7 11.0 7.8 63 3.4 SSW 17 19 9 10 1019.7 - 0.0
29/12:00am 13.3 10.0 6.4 63 3.3 SW 13 17 7 9 1019.9 1019.8 0.0
 
Date/Time
WST
Temp
°C
App
Temp
°C
Dew
Point
Rel
Hum
%
Delta-T
°C
Wind Press
QNH
hPa
Press
MSL
hPa
Rain
since 9 am
mm
Dir
 
Spd
km/h
Gust
km/h
Spd
kts
Gust
kts
28/11:30pm 13.3 9.2 6.1 61 3.4 S 17 20 9 11 1019.9 - 0.0
28/11:00pm 15.4 12.4 5.8 52 4.6 W 11 13 6 7 1019.7 - 0.0
28/10:30pm 15.2 12.6 6.0 54 4.4 WSW 9 11 5 6 1019.8 - 0.0
28/10:00pm 16.0 13.4 6.1 52 4.8 WSW 9 13 5 7 1019.7 - 0.0
28/09:30pm 16.2 13.2 5.8 50 5.0 WSW 11 13 6 7 1019.6 - 0.0
28/09:00pm 16.4 13.8 6.1 50 5.0 WSW 9 13 5 7 1019.5 1019.4 0.0
28/08:30pm 16.4 13.1 6.6 52 4.8 WSW 13 15 7 8 1019.3 - 0.0
28/08:00pm 17.2 13.9 6.4 49 5.3 SW 13 13 7 7 1019.2 - 0.0
28/07:30pm 16.1 13.4 7.2 55 4.4 SSW 11 13 6 7 1019.0 - 0.0
28/07:00pm 20.2 17.9 5.9 39 7.1 WSW 7 9 4 5 1018.6 - 0.0
28/06:30pm 22.2 19.9 5.0 32 8.5 WSW 6 7 3 4 1018.5 - 0.0
28/06:00pm 23.1 21.2 6.7 34 8.4 ESE 6 6 3 3 1018.5 1018.4 0.0
28/05:30pm 24.1 21.8 5.5 30 9.4 ESE 7 9 4 5 1018.3 - 0.0
28/05:00pm 25.2 22.6 3.3 24 10.7 SE 6 7 3 4 1018.3 - 0.0
28/04:30pm 25.5 22.7 3.2 23 10.9 E 7 9 4 5 1018.3 - 0.0
28/04:00pm 25.9 22.7 2.9 22 11.2 E 9 13 5 7 1018.3 - 0.0
28/03:30pm 25.9 22.6 2.2 21 11.4 E 9 13 5 7 1018.3 - 0.0
28/03:00pm 25.9 22.0 3.3 23 11.1 E 13 17 7 9 1018.5 1018.4 0.0
28/02:30pm 26.1 22.8 6.2 28 10.3 ENE 13 17 7 9 1018.5 - 0.0
28/02:00pm 25.5 21.6 5.5 27 10.2 E 15 19 8 10 1018.7 - 0.0
28/01:30pm 24.4 20.9 7.4 33 8.9 E 15 20 8 11 1019.1 - 0.0
28/01:00pm 24.1 20.8 6.4 32 9.1 E 13 20 7 11 1019.5 - 0.0
28/12:30pm 23.4 20.4 7.5 36 8.3 E 13 17 7 9 1020.1 - 0.0
28/12:00pm 22.2 19.8 8.5 41 7.2 E 11 17 6 9 1020.5 1020.4 0.0
28/11:30am 21.6 19.3 8.9 44 6.7 ESE 11 17 6 9 1020.9 - 0.0
28/11:00am 21.3 17.8 8.8 44 6.6 SE 17 22 9 12 1021.3 - 0.0
28/10:30am 21.1 18.2 8.0 43 6.8 SE 13 20 7 11 1021.6 - 0.0
28/10:00am 19.9 17.2 8.8 48 5.8 SE 13 20 7 11 1021.9 - 0.0
28/09:30am 18.9 15.6 9.6 54 4.9 SSE 17 22 9 12 1022.0 - 0.0
28/09:00am 17.5 13.9 9.9 61 4.0 S 19 24 10 13 1022.0 1021.9 0.0
28/08:30am 15.8 14.5 11.3 74 2.4 SSW 9 13 5 7 1021.7 - 0.0
28/08:00am 13.9 12.6 11.4 85 1.3 SSW 9 13 5 7 1021.4 - 0.0
28/07:30am 12.1 10.1 10.1 87 1.0 SW 11 15 6 8 1021.1 - 0.0
28/07:00am 11.7 9.3 10.1 90 0.8 SSW 13 15 7 8 1020.7 - 0.0
28/06:30am 12.1 9.4 10.3 89 0.9 SW 15 17 8 9 1020.7 - 0.0
28/06:00am 11.5 8.7 10.1 91 0.7 SW 15 19 8 10 1020.3 1020.2 0.0
28/05:30am 11.8 9.1 10.4 91 0.7 SW 15 17 8 9 1020.1 - 0.0
28/05:00am 11.6 8.9 10.2 91 0.7 SW 15 17 8 9 1020.0 - 0.0
28/04:30am 12.0 8.9 10.4 90 0.8 SW 17 19 9 10 1019.8 - 0.0
28/04:00am 12.8 10.5 10.5 86 1.2 SW 13 17 7 9 1019.7 - 0.0
28/03:30am 12.9 10.3 10.6 86 1.2 SW 15 17 8 9 1019.8 - 0.0
28/03:00am 12.4 9.8 10.7 89 0.9 SW 15 17 8 9 1020.0 1019.9 0.0
28/02:30am 12.5 10.6 10.6 88 1.0 SSW 11 15 6 8 1020.1 - 0.0
28/02:00am 12.9 11.1 10.8 87 1.1 SSW 11 13 6 7 1020.2 - 0.0
28/01:30am 13.7 11.9 10.8 83 1.5 SSW 11 13 6 7 1020.3 - 0.0
28/01:00am 14.7 13.0 11.3 80 1.8 S 11 17 6 9 1020.6 - 0.0
28/12:30am 15.4 12.2 11.1 75 2.3 SSW 19 22 10 12 1020.5 - 0.0
28/12:00am 15.9 12.6 10.8 71 2.7 SSW 19 22 10 12 1020.5 1020.4 0.0
 
Date/Time
WST
Temp
°C
App
Temp
°C
Dew
Point
Rel
Hum
%
Delta-T
°C
Wind Press
QNH
hPa
Press
MSL
hPa
Rain
since 9 am
mm
Dir
 
Spd
km/h
Gust
km/h
Spd
kts
Gust
kts
27/11:30pm 16.1 12.4 10.2 68 3.1 SSW 20 26 11 14 1020.8 - 0.0
27/11:00pm 16.2 12.3 9.4 64 3.5 SSW 20 26 11 14 1020.8 - 0.0
27/10:30pm 16.2 12.6 9.7 65 3.4 SSW 19 22 10 12 1020.8 - 0.0
27/10:00pm 16.6 12.8 9.0 61 3.9 SSW 19 22 10 12 1020.7 - 0.0
27/09:30pm 16.8 13.4 9.3 61 3.9 SSW 17 20 9 11 1020.5 - 0.0
27/09:00pm 17.3 14.0 9.4 59 4.1 SSW 17 20 9 11 1020.5 1020.4 0.0
27/08:30pm 17.6 14.4 9.8 60 4.1 SW 17 20 9 11 1020.3 - 0.0
27/08:00pm 18.2 14.9 9.6 57 4.5 SW 17 20 9 11 1020.2 - 0.0
27/07:30pm 19.3 16.1 10.1 55 4.9 SW 17 22 9 12 1020.0 - 0.0
27/07:00pm 19.2 14.7 6.3 43 6.4 WSW 19 22 10 12 1019.6 - 0.0
27/06:30pm 19.2 14.6 1.4 30 8.0 SW 15 17 8 9 1019.2 - 0.0
27/06:00pm 21.1 16.5 1.8 28 8.9 SW 15 17 8 9 1019.0 1018.9 0.0
27/05:30pm 23.7 19.8 1.4 23 10.4 S 11 15 6 8 1019.1 - 0.0
27/05:00pm 25.2 21.3 -1.3 17 11.9 S 9 13 5 7 1019.0 - 0.0
27/04:30pm 25.4 21.6 -0.9 17 11.9 SSE 9 15 5 8 1019.0 - 0.0
27/04:00pm 25.9 22.6 -1.4 16 12.3 S 6 9 3 5 1019.0 - 0.0
27/03:30pm 25.6 20.9 -1.7 16 12.2 SSE 13 17 7 9 1019.1 - 0.0
27/03:00pm 25.8 20.6 0.1 18 11.9 SE 17 22 9 12 1019.1 1019.0 0.0

Other Formats:

Comma delimited format used in spreadsheet applications
http://www.bom.gov.au/fwo/IDW60801/IDW60801.94302.axf

JavaScript Object Notation format (JSON) in row-major order
http://www.bom.gov.au/fwo/IDW60801/IDW60801.94302.json